Time;durP1;ratioP1;P1;durP2;ratioP2;P2;SDS_P1;SDS_P2;PMS_P1;PMS_P2;Temp;Humidity;BMP_temperature;BMP_pressure;BME280_temperature;BME280_humidity;BME280_pressure;Samples;Min_cycle;Max_cycle;Signal;HPM_P1;HPM_P2
2023/09/25 00:02:08;;;;;;;8.13;6.90;;;;;;;8.88;96.14;102263.19;5034642;28;20208;-73
2023/09/25 00:04:35;;;;;;;8.53;6.33;;;;;;;8.90;96.09;102262.91;5045655;28;20200;-73
2023/09/25 00:07:03;;;;;;;8.20;5.90;;;;;;;8.86;96.36;102261.88;5043771;28;20725;-73
2023/09/25 00:09:30;;;;;;;9.60;5.97;;;;;;;8.88;96.55;102251.84;5041390;28;20291;-73
2023/09/25 00:11:56;;;;;;;6.07;5.13;;;;;;;8.86;97.12;102260.03;5049635;28;20195;-74
2023/09/25 00:14:22;;;;;;;6.97;5.57;;;;;;;8.84;96.98;102253.44;5032539;28;20203;-73
2023/09/25 00:16:49;;;;;;;6.77;5.83;;;;;;;8.80;96.87;102261.13;5051198;28;20230;-73
2023/09/25 00:19:16;;;;;;;8.07;5.50;;;;;;;8.76;96.56;102261.94;5040196;28;20220;-73
2023/09/25 00:21:43;;;;;;;7.83;5.40;;;;;;;8.76;96.64;102261.94;5042009;28;20210;-73
2023/09/25 00:24:09;;;;;;;6.00;5.33;;;;;;;8.75;96.65;102255.88;5043281;28;20207;-73
2023/09/25 00:26:36;;;;;;;7.50;5.83;;;;;;;8.75;96.74;102258.50;5047642;28;20593;-73
2023/09/25 00:29:02;;;;;;;6.20;5.20;;;;;;;8.77;96.99;102260.88;5050259;28;20220;-73
2023/09/25 00:31:29;;;;;;;7.60;5.47;;;;;;;8.74;97.41;102264.03;5035496;28;20207;-73
2023/09/25 00:34:01;;;;;;;6.17;5.43;;;;;;;8.69;97.11;102251.69;5035186;28;20207;-73
2023/09/25 00:36:28;;;;;;;6.00;5.17;;;;;;;8.66;96.90;102254.91;5061665;28;20219;-73
2023/09/25 00:38:57;;;;;;;5.30;4.80;;;;;;;8.64;96.91;102254.38;5058657;28;20570;-73
2023/09/25 00:41:24;;;;;;;6.97;5.10;;;;;;;8.63;97.02;102250.16;5046211;28;20203;-73
2023/09/25 00:43:50;;;;;;;7.57;5.83;;;;;;;8.63;96.86;102252.00;5032735;28;20266;-73
2023/09/25 00:46:17;;;;;;;6.37;4.97;;;;;;;8.59;96.80;102243.84;5068173;28;20199;-73
2023/09/25 00:48:43;;;;;;;6.97;5.67;;;;;;;8.60;96.92;102249.91;5035300;28;20623;-73
2023/09/25 00:51:10;;;;;;;7.47;5.53;;;;;;;8.58;96.47;102254.66;5064013;28;20204;-73
2023/09/25 00:53:40;;;;;;;8.50;6.07;;;;;;;8.57;96.91;102253.88;5016918;28;20193;-73
2023/09/25 00:56:07;;;;;;;6.70;5.70;;;;;;;8.55;97.01;102245.44;5033037;28;20212;-73
2023/09/25 00:58:33;;;;;;;7.00;5.83;;;;;;;8.54;96.72;102256.28;5050894;28;20614;-73
2023/09/25 01:01:02;;;;;;;9.13;5.90;;;;;;;8.50;96.46;102256.00;5043640;28;20213;-73
2023/09/25 01:03:30;;;;;;;6.77;5.70;;;;;;;8.51;96.61;102252.34;5028417;28;20229;-73
2023/09/25 01:05:57;;;;;;;9.93;6.23;;;;;;;8.49;96.79;102254.44;5052633;28;20284;-73
2023/09/25 01:08:23;;;;;;;8.63;6.47;;;;;;;8.45;96.23;102245.50;5038567;28;20226;-73
2023/09/25 01:10:51;;;;;;;8.70;6.60;;;;;;;8.44;96.17;102249.19;5032573;28;20585;-73
2023/09/25 01:13:17;;;;;;;6.33;5.63;;;;;;;8.44;96.19;102241.28;5058909;28;20207;-73
2023/09/25 01:15:44;;;;;;;6.73;5.73;;;;;;;8.44;96.52;102243.94;5030303;28;20207;-73
2023/09/25 01:18:11;;;;;;;7.03;6.20;;;;;;;8.42;96.76;102240.78;5032425;28;20837;-73
2023/09/25 01:20:39;;;;;;;6.90;5.70;;;;;;;8.41;96.82;102238.41;5039069;28;20220;-73
2023/09/25 01:23:07;;;;;;;6.97;5.50;;;;;;;8.37;96.25;102240.81;5026206;28;20200;-73
2023/09/25 01:25:33;;;;;;;6.63;5.30;;;;;;;8.34;96.28;102241.34;5052231;28;20219;-73
2023/09/25 01:28:00;;;;;;;8.13;5.67;;;;;;;8.33;95.96;102234.50;5034380;28;20256;-73
2023/09/25 01:30:28;;;;;;;8.17;5.63;;;;;;;8.34;95.86;102240.56;5034712;28;20224;-73
2023/09/25 01:32:55;;;;;;;7.90;6.23;;;;;;;8.30;95.93;102232.44;5031003;28;20208;-73
2023/09/25 01:35:23;;;;;;;9.03;6.47;;;;;;;8.31;95.90;102235.84;5032143;28;20204;-73
2023/09/25 01:40:38;;;;;;;7.37;5.70;;;;;;;8.30;96.36;102229.81;5038771;28;20220;-73
2023/09/25 01:43:07;;;;;;;7.27;5.80;;;;;;;8.29;96.73;102230.84;5049959;28;20198;-73
2023/09/25 01:45:34;;;;;;;7.33;5.53;;;;;;;8.26;96.65;102226.13;5051849;28;20195;-73
2023/09/25 01:48:01;;;;;;;6.63;5.93;;;;;;;8.24;96.38;102222.97;5029691;28;20192;-73
2023/09/25 01:50:29;;;;;;;8.03;6.30;;;;;;;8.22;95.99;102214.56;5033491;28;20234;-73
2023/09/25 01:52:58;;;;;;;6.87;5.30;;;;;;;8.24;96.13;102217.69;5055277;28;20213;-73
2023/09/25 01:55:27;;;;;;;7.67;5.50;;;;;;;8.25;96.55;102214.03;5058804;28;20708;-73
2023/09/25 01:57:55;;;;;;;9.13;6.20;;;;;;;8.26;96.73;102209.53;5034722;28;20222;-73
2023/09/25 02:00:21;;;;;;;7.37;5.07;;;;;;;8.26;96.43;102210.34;5060532;28;20219;-73
2023/09/25 02:02:48;;;;;;;6.67;5.80;;;;;;;8.27;96.95;102203.22;5031949;28;20200;-73
2023/09/25 02:05:14;;;;;;;6.20;4.87;;;;;;;8.24;97.26;102209.03;5031721;28;20206;-73
2023/09/25 02:07:41;;;;;;;8.47;5.63;;;;;;;8.21;97.23;102206.94;5018643;28;20659;-73
2023/09/25 02:10:10;;;;;;;7.67;5.90;;;;;;;8.20;96.22;102195.63;5030338;28;20618;-73
2023/09/25 02:12:36;;;;;;;6.47;5.33;;;;;;;8.16;96.90;102194.56;5043746;28;20272;-73
2023/09/25 02:15:06;;;;;;;7.97;5.60;;;;;;;8.16;97.11;102196.38;5054828;28;20264;-73
2023/09/25 02:17:33;;;;;;;9.27;6.47;;;;;;;8.14;97.19;102198.50;5025213;28;20715;-73
2023/09/25 02:20:17;;;;;;;7.93;6.50;;;;;;;8.15;97.34;102193.00;5031492;28;20232;-73
2023/09/25 02:22:43;;;;;;;7.47;6.23;;;;;;;8.14;97.28;102188.00;5017440;28;20426;-73
2023/09/25 02:25:10;;;;;;;7.77;6.70;;;;;;;8.12;96.53;102195.38;5040127;28;20191;-73
2023/09/25 02:27:37;;;;;;;7.27;5.93;;;;;;;8.10;97.09;102184.31;5034429;28;20192;-73
2023/09/25 02:30:08;;;;;;;9.63;6.17;;;;;;;8.11;97.25;102188.50;5033232;28;20223;-73
2023/09/25 02:32:34;;;;;;;7.83;5.83;;;;;;;8.12;97.42;102190.88;5040777;28;20273;-74
2023/09/25 02:35:01;;;;;;;9.43;6.90;;;;;;;8.15;97.16;102193.00;5058891;28;20214;-73
2023/09/25 02:37:26;;;;;;;8.13;5.87;;;;;;;8.14;97.48;102199.28;5040039;28;20314;-73
2023/09/25 02:39:52;;;;;;;8.70;6.07;;;;;;;8.13;97.88;102196.94;5035022;28;20656;-73
2023/09/25 02:42:19;;;;;;;8.13;6.67;;;;;;;8.13;97.91;102194.31;5032302;28;20203;-74
2023/09/25 02:44:45;;;;;;;10.07;6.80;;;;;;;8.11;97.59;102191.16;5033192;28;20204;-73
2023/09/25 02:47:13;;;;;;;10.50;6.40;;;;;;;8.13;97.47;102199.56;5035569;28;20206;-73
2023/09/25 02:49:40;;;;;;;7.47;6.20;;;;;;;8.16;97.64;102194.56;5045541;28;20694;-73
2023/09/25 02:52:07;;;;;;;8.63;6.97;;;;;;;8.15;97.55;102197.44;5033888;28;20195;-73
2023/09/25 02:54:33;;;;;;;8.60;7.33;;;;;;;8.18;97.83;102192.44;5029358;28;20577;-73
2023/09/25 02:57:00;;;;;;;12.20;8.53;;;;;;;8.16;97.78;102191.94;5032380;28;20215;-73
2023/09/25 02:59:26;;;;;;;13.50;8.40;;;;;;;8.25;98.28;102189.53;5048915;28;20231;-74
2023/09/25 03:01:54;;;;;;;12.07;8.87;;;;;;;8.33;98.58;102189.00;5032603;28;20661;-73
2023/09/25 03:04:22;;;;;;;13.47;8.77;;;;;;;8.36;98.71;102183.97;5032146;28;20210;-73
2023/09/25 03:06:48;;;;;;;12.97;8.67;;;;;;;8.43;98.61;102179.19;5032594;28;20219;-73
2023/09/25 03:09:14;;;;;;;15.07;9.80;;;;;;;8.46;99.23;102188.38;5031952;28;20596;-73
2023/09/25 03:11:41;;;;;;;14.17;9.83;;;;;;;8.49;99.42;102177.31;5037577;28;20298;-73
2023/09/25 03:14:07;;;;;;;15.53;9.50;;;;;;;8.51;99.17;102178.63;5049201;28;20253;-73
2023/09/25 03:16:34;;;;;;;14.43;9.97;;;;;;;8.56;99.50;102178.59;5044334;28;20241;-73
2023/09/25 03:19:01;;;;;;;13.97;9.47;;;;;;;8.60;99.51;102187.50;5032202;28;20234;-73
2023/09/25 03:21:29;;;;;;;15.47;9.57;;;;;;;8.67;99.52;102190.63;5044363;28;20283;-73
2023/09/25 03:23:55;;;;;;;13.30;9.17;;;;;;;8.70;99.63;102191.94;5046985;28;20202;-73
2023/09/25 03:26:21;;;;;;;14.23;9.80;;;;;;;8.70;99.95;102190.06;5032271;28;20222;-73
2023/09/25 03:28:49;;;;;;;13.53;9.50;;;;;;;8.69;100.00;102185.09;5048443;28;20221;-73
2023/09/25 03:31:17;;;;;;;12.80;9.20;;;;;;;8.65;100.00;102179.56;5031768;28;20199;-73
2023/09/25 03:33:45;;;;;;;13.03;8.53;;;;;;;8.64;100.00;102187.75;5042457;28;20632;-73
2023/09/25 03:36:12;;;;;;;11.90;7.90;;;;;;;8.62;100.00;102185.41;5039486;28;20294;-74
2023/09/25 03:38:39;;;;;;;10.17;7.30;;;;;;;8.62;100.00;102181.97;5040820;28;20207;-73
2023/09/25 03:41:06;;;;;;;11.03;7.83;;;;;;;8.60;99.79;102186.72;5035610;28;20569;-73
2023/09/25 03:43:33;;;;;;;10.50;8.00;;;;;;;8.56;99.38;102186.50;5028514;28;20222;-73
2023/09/25 03:45:59;;;;;;;11.07;8.20;;;;;;;8.51;99.58;102185.72;5049740;28;20206;-73
2023/09/25 03:48:26;;;;;;;10.10;7.33;;;;;;;8.47;99.46;102188.13;5042354;28;20213;-73
2023/09/25 03:50:52;;;;;;;8.90;6.87;;;;;;;8.48;98.98;102189.69;5035376;28;20202;-73
2023/09/25 03:53:18;;;;;;;11.67;7.33;;;;;;;8.46;98.74;102178.66;5042764;28;20195;-73
2023/09/25 03:55:46;;;;;;;15.07;8.20;;;;;;;8.44;98.77;102187.88;5035402;28;20195;-73
2023/09/25 03:58:13;;;;;;;11.70;7.63;;;;;;;8.43;98.71;102187.09;5035388;28;20293;-73
2023/09/25 04:00:41;;;;;;;12.03;8.27;;;;;;;8.45;99.28;102184.19;5045159;28;20732;-73
2023/09/25 04:03:07;;;;;;;11.93;8.77;;;;;;;8.39;99.42;102182.66;5051791;28;20202;-73
2023/09/25 04:05:34;;;;;;;10.87;7.90;;;;;;;8.32;99.20;102190.81;5050553;28;20196;-74
2023/09/25 04:08:01;;;;;;;7.93;6.70;;;;;;;8.25;98.79;102189.53;5049673;28;20205;-73
2023/09/25 04:10:27;;;;;;;9.97;7.33;;;;;;;8.22;98.24;102187.44;5042719;28;20251;-73
2023/09/25 04:12:56;;;;;;;10.53;6.87;;;;;;;8.15;97.71;102189.56;5045107;28;20299;-73
2023/09/25 04:15:22;;;;;;;7.60;6.20;;;;;;;8.18;97.38;102184.53;5046881;28;20196;-73
2023/09/25 04:17:50;;;;;;;9.07;6.27;;;;;;;8.12;97.79;102187.47;5053295;28;20688;-73
2023/09/25 04:20:17;;;;;;;9.07;6.60;;;;;;;8.06;98.03;102181.44;5049843;28;20311;-73
2023/09/25 04:22:44;;;;;;;8.23;5.90;;;;;;;8.02;97.56;102180.41;5050426;28;20661;-73
2023/09/25 04:25:18;;;;;;;10.93;7.23;;;;;;;7.98;97.34;102170.69;5051639;28;20281;-73
2023/09/25 04:27:45;;;;;;;10.07;6.30;;;;;;;7.99;97.67;102182.78;5037989;28;20202;-73
2023/09/25 04:30:14;;;;;;;8.77;6.43;;;;;;;7.99;98.25;102183.59;5046544;28;20755;-73
2023/09/25 04:32:42;;;;;;;7.63;6.27;;;;;;;7.98;98.78;102184.63;5050187;28;20211;-73
2023/09/25 04:35:09;;;;;;;12.43;7.17;;;;;;;7.88;97.90;102182.03;5046748;28;20203;-73
2023/09/25 04:37:37;;;;;;;8.33;6.43;;;;;;;7.89;98.63;102185.44;5046413;28;20211;-73
2023/09/25 04:40:13;;;;;;;10.37;7.40;;;;;;;7.87;98.66;102190.97;5050223;28;20246;-73
2023/09/25 04:42:39;;;;;;;9.40;5.67;;;;;;;7.81;98.73;102186.78;5041834;28;20618;-73
2023/09/25 04:45:12;;;;;;;8.60;6.27;;;;;;;7.82;98.42;102180.47;5040139;28;20262;-74
2023/09/25 04:47:41;;;;;;;9.03;6.23;;;;;;;7.83;99.18;102173.38;5052877;28;20199;-73
2023/09/25 04:50:08;;;;;;;7.93;6.23;;;;;;;7.77;98.56;102171.81;5052601;28;20242;-73
2023/09/25 04:52:34;;;;;;;7.90;6.37;;;;;;;7.81;99.04;102178.13;5052625;28;20198;-73
2023/09/25 04:55:04;;;;;;;8.27;6.23;;;;;;;7.79;99.00;102175.75;5052947;28;20670;-73
2023/09/25 04:57:31;;;;;;;8.37;5.70;;;;;;;7.80;99.41;102169.44;5046028;28;20219;-73
2023/09/25 04:59:57;;;;;;;8.07;6.67;;;;;;;7.79;99.38;102169.69;5043748;28;20216;-73
2023/09/25 05:02:23;;;;;;;8.70;6.10;;;;;;;7.74;99.29;102172.34;5033160;28;20196;-73
2023/09/25 05:04:51;;;;;;;8.53;6.17;;;;;;;7.72;99.93;102167.34;5051810;28;20204;-73
2023/09/25 05:07:19;;;;;;;9.17;6.60;;;;;;;7.73;99.77;102174.22;5052616;28;20253;-74
2023/09/25 05:09:45;;;;;;;8.20;6.53;;;;;;;7.72;99.30;102180.50;5044828;28;20219;-74
2023/09/25 05:12:11;;;;;;;8.13;6.47;;;;;;;7.72;99.37;102177.09;5039714;28;20202;-73
2023/09/25 05:14:38;;;;;;;8.90;7.30;;;;;;;7.69;99.80;102169.72;5047367;28;20202;-73
2023/09/25 05:17:07;;;;;;;9.17;7.10;;;;;;;7.69;99.74;102167.91;5034041;28;20203;-73
2023/09/25 05:19:34;;;;;;;9.17;7.27;;;;;;;7.76;99.84;102176.28;5039119;28;20242;-73
2023/09/25 05:22:01;;;;;;;11.67;7.40;;;;;;;7.75;100.00;102173.91;5052244;28;20696;-73
2023/09/25 05:24:28;;;;;;;15.93;7.37;;;;;;;7.73;99.79;102176.84;5026672;28;20578;-73
2023/09/25 05:26:54;;;;;;;9.97;6.93;;;;;;;7.72;100.00;102179.72;5041016;28;20195;-73
2023/09/25 05:29:20;;;;;;;9.07;6.57;;;;;;;7.74;99.60;102167.09;5051982;28;20215;-73
2023/09/25 05:31:47;;;;;;;15.10;7.03;;;;;;;7.74;99.85;102174.97;5045510;28;20195;-73
2023/09/25 05:34:13;;;;;;;10.73;7.17;;;;;;;7.78;100.00;102183.91;5045850;28;20199;-74
2023/09/25 05:36:40;;;;;;;9.03;6.63;;;;;;;7.75;99.93;102177.34;5040844;28;20208;-73
2023/09/25 05:39:08;;;;;;;8.63;6.67;;;;;;;7.78;99.86;102183.91;5047068;28;20731;-73
2023/09/25 05:41:35;;;;;;;10.90;7.10;;;;;;;7.76;99.62;102181.53;5039646;28;20258;-73
2023/09/25 05:44:01;;;;;;;7.97;6.63;;;;;;;7.80;100.00;102173.91;5049673;28;20222;-73
2023/09/25 05:46:28;;;;;;;9.63;6.87;;;;;;;7.85;99.88;102177.31;5051377;28;20195;-73
2023/09/25 05:48:54;;;;;;;8.67;6.90;;;;;;;7.91;100.00;102180.69;5047126;28;20239;-74
2023/09/25 05:51:20;;;;;;;9.97;7.10;;;;;;;7.93;100.00;102173.34;5051328;28;20203;-73
2023/09/25 05:53:47;;;;;;;11.10;8.43;;;;;;;7.93;100.00;102176.75;5042640;28;20546;-73
2023/09/25 05:56:15;;;;;;;12.60;8.83;;;;;;;7.95;100.00;102177.28;5039796;28;20203;-73
2023/09/25 05:58:41;;;;;;;15.27;10.00;;;;;;;8.00;99.97;102179.09;5050838;28;20282;-74
2023/09/25 06:01:08;;;;;;;13.13;9.87;;;;;;;8.05;100.00;102177.25;5040362;28;20579;-74
2023/09/25 06:03:34;;;;;;;13.27;10.00;;;;;;;8.23;100.00;102173.25;5031723;28;20209;-73
2023/09/25 06:06:00;;;;;;;16.80;10.73;;;;;;;8.31;100.00;102178.72;5041897;28;20215;-74
2023/09/25 06:08:26;;;;;;;17.47;11.30;;;;;;;8.42;100.00;102180.25;5047593;28;20204;-73
2023/09/25 06:11:00;;;;;;;16.03;10.27;;;;;;;8.48;100.00;102175.72;5044980;28;20669;-73
2023/09/25 06:13:30;;;;;;;14.57;10.00;;;;;;;8.56;100.00;102177.78;5045082;28;20226;-73
2023/09/25 06:15:56;;;;;;;17.07;12.10;;;;;;;8.62;100.00;102180.13;5050342;28;20207;-73
2023/09/25 06:18:23;;;;;;;18.50;12.60;;;;;;;8.70;100.00;102184.81;5050155;28;20579;-73
2023/09/25 06:20:50;;;;;;;17.43;11.17;;;;;;;8.82;100.00;102189.72;5049875;28;20217;-73
2023/09/25 06:23:17;;;;;;;19.47;11.97;;;;;;;8.91;100.00;102183.59;5040937;28;20698;-74
2023/09/25 06:25:44;;;;;;;15.43;10.93;;;;;;;9.03;100.00;102188.53;5039605;28;20204;-73
2023/09/25 06:28:11;;;;;;;24.17;12.73;;;;;;;9.12;100.00;102185.00;5049777;28;20199;-74
2023/09/25 06:30:39;;;;;;;19.60;13.03;;;;;;;9.21;100.00;102196.53;5044574;28;20216;-74
2023/09/25 06:33:06;;;;;;;23.53;13.07;;;;;;;9.30;100.00;102194.09;5048749;28;20203;-73
2023/09/25 06:35:52;;;;;;;19.93;12.87;;;;;;;9.40;100.00;102196.63;5035036;28;20466;-74
2023/09/25 06:38:19;;;;;;;26.57;16.57;;;;;;;9.54;100.00;102201.00;5042255;28;20220;-74
2023/09/25 06:40:46;;;;;;;28.10;17.17;;;;;;;9.61;100.00;102196.16;5045706;28;20286;-74
2023/09/25 06:43:13;;;;;;;31.60;17.50;;;;;;;9.71;100.00;102201.34;5049459;28;20203;-74
2023/09/25 06:45:40;;;;;;;31.23;17.97;;;;;;;9.86;100.00;102200.38;5047502;28;20597;-74
2023/09/25 06:48:07;;;;;;;32.23;17.40;;;;;;;9.94;100.00;102200.53;5047764;28;20189;-74
2023/09/25 06:50:34;;;;;;;34.23;18.87;;;;;;;10.11;100.00;102200.91;5038617;28;20699;-74
2023/09/25 06:53:00;;;;;;;29.70;18.20;;;;;;;10.24;100.00;102194.94;5049143;28;20206;-74
2023/09/25 06:55:27;;;;;;;30.83;18.57;;;;;;;10.35;100.00;102204.28;5041362;28;20228;-74
2023/09/25 06:57:53;;;;;;;32.13;18.13;;;;;;;10.45;98.96;102201.50;5045122;28;20724;-73
2023/09/25 07:00:19;;;;;;;37.70;17.60;;;;;;;10.63;98.88;102208.66;5042883;28;20481;-74
2023/09/25 07:02:47;;;;;;;33.13;18.77;;;;;;;10.78;99.69;102202.38;5041148;28;20202;-74
2023/09/25 07:05:13;;;;;;;29.70;17.27;;;;;;;10.88;98.50;102189.78;5048093;28;20207;-74
2023/09/25 07:07:40;;;;;;;33.37;18.00;;;;;;;11.01;98.49;102202.28;5040896;28;20817;-74
2023/09/25 07:10:09;;;;;;;31.60;17.63;;;;;;;11.15;98.14;102192.53;5046974;28;20219;-74
2023/09/25 07:12:36;;;;;;;29.50;18.13;;;;;;;11.25;96.19;102191.56;5049875;28;20195;-74
2023/09/25 07:15:03;;;;;;;26.63;16.70;;;;;;;11.38;96.52;102196.13;5048448;28;20400;-74
2023/09/25 07:17:30;;;;;;;24.60;16.37;;;;;;;11.49;95.16;102198.25;5048822;28;20286;-74
2023/09/25 07:19:59;;;;;;;25.27;15.77;;;;;;;11.61;95.69;102201.28;5040800;28;20231;-74
2023/09/25 07:22:27;;;;;;;26.20;15.43;;;;;;;11.73;94.37;102203.41;5044848;28;20304;-74
2023/09/25 07:24:54;;;;;;;23.13;14.93;;;;;;;11.84;94.07;102196.84;5046428;28;20206;-74
2023/09/25 07:27:21;;;;;;;19.53;14.00;;;;;;;11.94;93.53;102197.44;5048517;28;20277;-74
2023/09/25 07:29:48;;;;;;;18.07;13.47;;;;;;;12.06;93.40;102189.78;5052406;28;20216;-74
2023/09/25 07:32:16;;;;;;;19.17;12.43;;;;;;;12.17;92.93;102203.63;5051646;28;20759;-74
2023/09/25 07:34:43;;;;;;;18.00;12.03;;;;;;;12.26;92.16;102193.91;5039474;28;20263;-74
2023/09/25 07:37:12;;;;;;;15.20;11.57;;;;;;;12.41;92.08;102198.84;5043031;28;20236;-74
2023/09/25 07:39:40;;;;;;;14.87;11.13;;;;;;;12.51;92.22;102210.00;5040452;28;20223;-74
2023/09/25 07:42:06;;;;;;;16.27;11.43;;;;;;;12.62;91.29;102205.28;5043477;28;20206;-74
2023/09/25 07:44:34;;;;;;;17.57;10.53;;;;;;;12.75;91.14;102204.44;5047581;28;20203;-74
2023/09/25 07:47:06;;;;;;;11.13;9.50;;;;;;;12.87;90.72;102207.34;5051644;28;20210;-74
2023/09/25 07:49:38;;;;;;;12.77;9.97;;;;;;;12.95;89.85;102202.09;5051372;28;20300;-74
2023/09/25 07:52:15;;;;;;;12.10;8.43;;;;;;;13.10;89.42;102193.81;5043870;28;20219;-74
2023/09/25 07:54:44;;;;;;;11.70;8.60;;;;;;;13.21;88.90;102191.69;5046759;28;20289;-74
2023/09/25 07:57:13;;;;;;;11.60;7.97;;;;;;;13.32;89.22;102187.69;5045102;28;20284;-74
2023/09/25 07:59:39;;;;;;;10.10;8.23;;;;;;;13.45;88.26;102187.59;5042050;28;20603;-74
2023/09/25 08:02:07;;;;;;;9.50;7.57;;;;;;;13.56;87.59;102180.16;5042537;28;20200;-74
2023/09/25 08:04:34;;;;;;;9.37;7.60;;;;;;;13.69;86.99;102179.28;5034656;28;20206;-74
2023/09/25 08:07:00;;;;;;;10.67;6.73;;;;;;;13.78;87.53;102172.91;5048188;28;20206;-74
2023/09/25 08:09:26;;;;;;;8.43;6.50;;;;;;;13.90;86.74;102178.41;5045695;28;20229;-74
2023/09/25 08:11:54;;;;;;;9.67;7.07;;;;;;;14.04;85.78;102167.66;5040661;28;20214;-75
2023/09/25 08:14:21;;;;;;;9.37;7.17;;;;;;;14.14;86.21;102172.69;5021978;28;20206;-75
2023/09/25 08:16:47;;;;;;;9.27;6.27;;;;;;;14.26;84.77;102176.31;5048375;28;20205;-75
2023/09/25 08:19:17;;;;;;;9.77;6.47;;;;;;;14.35;85.31;102174.47;5043755;28;20242;-75
2023/09/25 08:21:44;;;;;;;7.77;5.47;;;;;;;14.46;84.08;102169.59;5037335;28;20211;-75
2023/09/25 08:24:10;;;;;;;9.27;7.00;;;;;;;14.53;84.81;102178.69;5049874;28;20536;-75
2023/09/25 08:26:38;;;;;;;9.43;5.50;;;;;;;14.65;83.17;102178.81;5044299;28;20202;-75
2023/09/25 08:29:06;;;;;;;10.10;5.13;;;;;;;14.78;82.13;102174.44;5043539;28;20290;-75
2023/09/25 08:31:35;;;;;;;8.63;5.40;;;;;;;14.86;82.61;102171.75;5036882;28;20624;-75
2023/09/25 08:34:02;;;;;;;7.63;5.77;;;;;;;14.95;83.50;102175.19;5035793;28;20307;-75
2023/09/25 08:36:28;;;;;;;8.13;5.37;;;;;;;15.08;81.27;102170.78;5048884;28;20198;-75
2023/09/25 08:38:54;;;;;;;6.23;4.97;;;;;;;15.18;80.33;102170.47;5048227;28;20228;-75
2023/09/25 08:41:21;;;;;;;6.17;4.93;;;;;;;15.26;82.45;102164.34;5047865;28;20214;-75
2023/09/25 08:43:49;;;;;;;7.47;5.00;;;;;;;15.37;80.71;102161.03;5043427;28;20216;-75
2023/09/25 08:46:17;;;;;;;5.63;4.87;;;;;;;15.47;78.67;102168.66;5046047;28;20212;-75
2023/09/25 08:48:46;;;;;;;7.30;4.87;;;;;;;15.57;80.48;102162.97;5037902;28;20708;-75
2023/09/25 08:51:14;;;;;;;7.40;4.40;;;;;;;15.66;80.77;102171.72;5046947;28;20209;-75
2023/09/25 08:53:41;;;;;;;10.10;4.50;;;;;;;15.76;79.18;102167.91;5051914;28;20201;-75
2023/09/25 08:56:12;;;;;;;6.30;4.63;;;;;;;15.84;79.41;102164.44;5041121;28;20680;-75
2023/09/25 08:58:42;;;;;;;4.80;3.63;;;;;;;15.96;79.91;102167.97;5039282;28;20679;-75
2023/09/25 09:01:09;;;;;;;6.03;4.43;;;;;;;16.07;78.25;102168.34;5047315;28;20567;-75
2023/09/25 09:03:37;;;;;;;4.93;4.10;;;;;;;16.16;79.33;102171.75;5045824;28;20206;-75
2023/09/25 09:06:04;;;;;;;5.80;4.00;;;;;;;16.26;78.65;102174.78;5036938;28;20211;-75
2023/09/25 09:08:31;;;;;;;7.73;3.80;;;;;;;16.37;77.38;102168.00;5039605;28;20211;-75
2023/09/25 09:10:59;;;;;;;6.43;3.43;;;;;;;16.45;77.17;102169.06;5040763;28;20203;-75
2023/09/25 09:13:25;;;;;;;4.20;3.60;;;;;;;16.56;77.12;102157.66;5029994;28;20203;-75
2023/09/25 09:15:52;;;;;;;5.70;3.70;;;;;;;16.71;76.65;102162.38;5034110;28;20713;-75
2023/09/25 09:18:23;;;;;;;4.37;3.30;;;;;;;16.85;75.71;102154.88;5048008;28;20280;-75
2023/09/25 09:20:51;;;;;;;4.17;3.63;;;;;;;16.97;76.35;102156.81;5031150;28;20223;-75
2023/09/25 09:23:18;;;;;;;5.23;3.10;;;;;;;17.12;75.58;102150.84;5043752;28;20214;-75
2023/09/25 09:25:46;;;;;;;3.77;2.80;;;;;;;17.32;72.78;102152.63;5042562;28;20260;-75
2023/09/25 09:28:13;;;;;;;4.83;2.77;;;;;;;17.46;72.61;102145.91;5039044;28;20230;-75
2023/09/25 09:30:39;;;;;;;4.50;3.30;;;;;;;17.62;73.81;102156.69;5040963;28;20262;-75
2023/09/25 09:33:08;;;;;;;3.20;2.90;;;;;;;17.83;73.07;102142.09;5047240;28;20210;-75
2023/09/25 09:35:34;;;;;;;4.13;2.67;;;;;;;18.00;71.84;102149.09;5027000;28;20210;-75
2023/09/25 09:38:05;;;;;;;3.57;2.73;;;;;;;18.16;73.37;102153.38;5038756;28;20278;-75
2023/09/25 09:40:32;;;;;;;3.00;2.67;;;;;;;18.32;68.76;102150.84;5033887;28;20238;-75
2023/09/25 09:42:59;;;;;;;2.93;2.63;;;;;;;18.48;71.11;102154.34;5040610;28;21038;-75
2023/09/25 09:45:28;;;;;;;5.27;2.77;;;;;;;18.59;72.47;102155.41;5046060;28;20207;-75
2023/09/25 09:47:56;;;;;;;3.33;2.77;;;;;;;18.73;70.17;102147.78;5040100;28;20210;-75
2023/09/25 09:50:27;;;;;;;5.77;3.00;;;;;;;18.86;67.97;102157.28;5036011;28;20216;-75
2023/09/25 09:52:53;;;;;;;3.27;2.87;;;;;;;18.99;66.80;102151.50;5042865;28;20581;-75
2023/09/25 09:55:22;;;;;;;4.23;2.90;;;;;;;19.12;67.26;102147.66;5026828;28;20207;-75
2023/09/25 09:57:48;;;;;;;3.80;2.40;;;;;;;19.21;65.06;102147.47;5023553;28;20202;-75
2023/09/25 10:00:17;;;;;;;3.37;2.80;;;;;;;19.34;68.16;102148.97;5038402;28;20288;-75
2023/09/25 10:02:45;;;;;;;3.33;2.17;;;;;;;19.44;66.60;102149.22;5037360;28;20199;-75
2023/09/25 10:05:13;;;;;;;4.67;2.53;;;;;;;19.55;66.04;102138.78;5044972;28;20206;-75
2023/09/25 10:08:05;;;;;;;3.10;2.50;;;;;;;19.67;64.74;102141.34;5037564;28;20230;-75
2023/09/25 10:10:33;;;;;;;3.73;2.30;;;;;;;19.79;68.26;102139.34;5042092;28;20227;-75
2023/09/25 10:13:00;;;;;;;3.50;2.20;;;;;;;19.86;62.05;102141.41;5057221;28;20207;-75
2023/09/25 10:15:27;;;;;;;5.20;2.40;;;;;;;19.93;62.03;102128.91;5039781;28;20210;-75
2023/09/25 10:17:54;;;;;;;3.80;2.30;;;;;;;20.01;66.64;102127.94;5043796;28;20199;-75
2023/09/25 10:20:37;;;;;;;4.73;2.40;;;;;;;20.09;64.78;102124.31;5032055;28;20593;-75
2023/09/25 10:23:08;;;;;;;2.70;2.30;;;;;;;20.18;62.21;102124.88;5043696;28;20199;-75
2023/09/25 10:25:48;;;;;;;3.33;2.40;;;;;;;20.25;62.81;102125.03;5019846;28;21379;-75
2023/09/25 10:28:22;;;;;;;3.90;2.50;;;;;;;20.29;62.02;102122.41;5028521;28;20295;-75
2023/09/25 10:30:49;;;;;;;2.90;2.03;;;;;;;20.36;67.62;102117.16;5021146;28;20211;-75
2023/09/25 10:33:16;;;;;;;2.83;2.03;;;;;;;20.41;61.70;102119.56;5046302;28;20207;-74
2023/09/25 10:35:44;;;;;;;2.30;2.10;;;;;;;20.47;59.67;102121.63;5037182;28;20231;-74
2023/09/25 10:38:13;;;;;;;3.50;1.70;;;;;;;20.57;63.69;102114.88;5041269;28;20755;-75
2023/09/25 10:40:48;;;;;;;4.57;2.20;;;;;;;20.63;65.05;102119.63;5039642;28;20230;-75
2023/09/25 10:43:19;;;;;;;3.20;2.13;;;;;;;20.69;63.12;102115.50;5044831;28;20199;-74
2023/09/25 10:45:45;;;;;;;2.57;2.37;;;;;;;20.74;64.62;102125.94;5035500;28;20208;-75
2023/09/25 10:48:13;;;;;;;2.83;2.60;;;;;;;20.76;60.40;102118.34;5044653;28;20570;-75
2023/09/25 10:50:40;;;;;;;2.40;2.20;;;;;;;20.80;63.16;102107.66;5036040;28;20219;-75
2023/09/25 10:53:07;;;;;;;2.83;1.90;;;;;;;20.81;58.84;102106.50;5044794;28;20588;-74
2023/09/25 10:55:33;;;;;;;2.53;1.90;;;;;;;20.83;59.94;102107.72;5041286;28;20249;-74
2023/09/25 10:58:02;;;;;;;2.00;1.80;;;;;;;20.86;57.60;102103.53;5043764;28;20746;-75
2023/09/25 11:00:28;;;;;;;1.80;1.58;;;;;;;20.86;56.28;102104.28;5044252;28;20227;-75
2023/09/25 11:02:55;;;;;;;4.82;2.00;;;;;;;20.90;56.19;102101.72;5041737;28;20749;-74
2023/09/25 11:05:22;;;;;;;2.00;1.80;;;;;;;20.95;60.66;102099.50;5024780;28;20206;-75
2023/09/25 11:07:49;;;;;;;2.50;1.90;;;;;;;20.98;62.61;102100.69;5039784;28;20309;-74
2023/09/25 11:10:17;;;;;;;4.43;1.70;;;;;;;21.01;59.29;102087.31;5033168;28;20292;-74
2023/09/25 11:12:47;;;;;;;2.20;1.77;;;;;;;21.06;59.07;102094.31;5035869;28;20196;-74
2023/09/25 11:15:17;;;;;;;2.50;1.80;;;;;;;21.11;56.12;102096.69;5036036;28;20214;-75
2023/09/25 11:17:48;;;;;;;3.50;2.20;;;;;;;21.15;63.39;102092.13;5043433;28;20199;-74
2023/09/25 11:20:18;;;;;;;3.10;1.93;;;;;;;21.17;57.49;102084.50;5040845;28;20223;-75
2023/09/25 11:22:46;;;;;;;2.50;1.80;;;;;;;21.22;61.54;102084.97;5035062;28;20412;-74
2023/09/25 11:25:15;;;;;;;3.90;2.15;;;;;;;21.25;57.32;102075.41;5040783;28;20726;-74
2023/09/25 11:27:51;;;;;;;2.33;1.88;;;;;;;21.30;56.23;102067.03;5033383;28;20689;-75
2023/09/25 11:30:20;;;;;;;5.30;2.10;;;;;;;21.36;57.34;102066.38;5031852;28;20281;-74